createdAt,value
2023-11-26T00:00:24.838Z,164.00
2023-11-26T00:00:59.625Z,165.00
2023-11-26T00:01:32.783Z,165.33
2023-11-26T00:02:06.164Z,166.00
2023-11-26T00:02:39.601Z,166.00
2023-11-26T00:03:12.780Z,165.33
2023-11-26T00:03:45.426Z,165.00
2023-11-26T00:04:17.991Z,165.00
2023-11-26T00:04:50.528Z,165.00
2023-11-26T00:05:23.302Z,165.00
2023-11-26T00:05:56.271Z,165.00
2023-11-26T00:06:28.899Z,165.00
2023-11-26T00:07:01.451Z,164.00
2023-11-26T00:07:34.175Z,163.67
2023-11-26T00:08:06.786Z,163.00
2023-11-26T00:08:39.660Z,163.00
2023-11-26T00:09:12.516Z,162.00
2023-11-26T00:09:45.101Z,160.33
2023-11-26T00:10:17.680Z,159.33
2023-11-26T00:10:50.237Z,158.67
2023-11-26T00:11:22.886Z,158.00
2023-11-26T00:11:56.138Z,158.00
2023-11-26T00:12:28.707Z,157.67
2023-11-26T00:13:01.279Z,156.67
2023-11-26T00:13:33.814Z,156.00
2023-11-26T00:14:06.655Z,156.00
2023-11-26T00:14:40.129Z,156.33
2023-11-26T00:15:13.526Z,157.00
2023-11-26T00:15:46.079Z,158.67
2023-11-26T00:16:18.746Z,162.33
2023-11-26T00:16:51.389Z,168.67
2023-11-26T00:17:24.253Z,177.33
2023-11-26T00:17:57.504Z,191.67
2023-11-26T00:18:30.143Z,199.33
2023-11-26T00:19:02.646Z,202.00
2023-11-26T00:19:35.689Z,205.33
2023-11-26T00:20:09.110Z,210.00
2023-11-26T00:20:41.757Z,213.33
2023-11-26T00:21:14.264Z,212.00
2023-11-26T00:21:46.821Z,207.67
2023-11-26T00:22:19.366Z,202.33
2023-11-26T00:22:52.171Z,199.67
2023-11-26T00:23:24.815Z,197.00
2023-11-26T00:23:57.424Z,195.00
2023-11-26T00:24:29.976Z,187.67
2023-11-26T00:25:02.523Z,176.00
2023-11-26T00:25:35.150Z,165.00
2023-11-26T00:26:08.313Z,158.33
2023-11-26T00:26:40.881Z,153.67
2023-11-26T00:27:13.445Z,150.67
2023-11-26T00:27:46.150Z,148.67
2023-11-26T00:28:19.105Z,150.00
2023-11-26T00:28:51.661Z,153.67
2023-11-26T00:29:24.300Z,156.33
2023-11-26T00:29:56.916Z,157.67
2023-11-26T00:30:30.549Z,158.00
2023-11-26T00:31:03.088Z,158.00
2023-11-26T00:31:35.582Z,158.67
2023-11-26T00:32:09.028Z,159.00
2023-11-26T00:32:41.584Z,159.00
2023-11-26T00:33:14.103Z,159.33
2023-11-26T00:33:49.610Z,160.33
2023-11-26T00:34:22.781Z,165.00
2023-11-26T00:34:55.711Z,171.00
2023-11-26T00:35:28.275Z,177.00
2023-11-26T00:36:00.806Z,191.67
2023-11-26T00:36:33.358Z,202.00
2023-11-26T00:37:05.916Z,205.00
2023-11-26T00:37:38.478Z,208.00
2023-11-26T00:38:11.081Z,211.33
2023-11-26T00:38:44.849Z,215.00
2023-11-26T00:39:17.628Z,214.33
2023-11-26T00:39:50.157Z,208.33
2023-11-26T00:40:25.892Z,203.00
2023-11-26T00:40:58.688Z,199.67
2023-11-26T00:41:31.262Z,199.00
2023-11-26T00:42:03.817Z,200.00
2023-11-26T00:42:36.364Z,202.33
2023-11-26T00:43:08.910Z,202.67
2023-11-26T00:43:41.983Z,201.33
2023-11-26T00:44:14.582Z,201.00
2023-11-26T00:44:47.178Z,201.00
2023-11-26T00:45:19.772Z,200.33
2023-11-26T00:45:52.301Z,200.00
2023-11-26T00:46:24.867Z,200.00
2023-11-26T00:46:57.516Z,199.00
2023-11-26T00:47:30.256Z,198.33
2023-11-26T00:48:03.166Z,198.00
2023-11-26T00:48:35.755Z,197.33
2023-11-26T00:49:08.327Z,197.00
2023-11-26T00:49:40.844Z,198.33
2023-11-26T00:50:15.514Z,205.00
2023-11-26T00:50:48.140Z,217.33
2023-11-26T00:51:21.976Z,223.00
2023-11-26T00:51:54.536Z,225.00
2023-11-26T00:52:27.076Z,226.00
2023-11-26T00:52:59.653Z,226.00
2023-11-26T00:53:35.725Z,225.00
2023-11-26T00:54:09.609Z,224.33
2023-11-26T00:54:42.394Z,223.00
2023-11-26T00:55:14.984Z,223.67
2023-11-26T00:55:47.570Z,224.67
2023-11-26T00:56:21.574Z,225.00
2023-11-26T00:56:54.170Z,229.33
2023-11-26T00:57:27.426Z,237.00
2023-11-26T00:57:59.962Z,239.67
2023-11-26T00:58:32.499Z,239.67
2023-11-26T00:59:05.049Z,239.00
2023-11-26T00:59:37.580Z,238.00
2023-11-26T01:00:13.743Z,238.00
2023-11-26T01:00:46.441Z,236.33
2023-11-26T01:01:19.092Z,235.67
2023-11-26T01:01:51.954Z,234.33
2023-11-26T01:02:25.734Z,233.00
2023-11-26T01:02:58.475Z,232.00
2023-11-26T01:03:31.154Z,230.67
2023-11-26T01:04:04.468Z,228.00
2023-11-26T01:04:37.698Z,223.33
2023-11-26T01:05:10.304Z,215.67
2023-11-26T01:05:42.905Z,205.67
2023-11-26T01:06:15.403Z,201.33
2023-11-26T01:06:47.905Z,199.33
2023-11-26T01:07:20.447Z,197.33
2023-11-26T01:07:53.505Z,197.67
2023-11-26T01:08:26.109Z,197.67
2023-11-26T01:08:59.689Z,197.00
2023-11-26T01:09:32.260Z,199.00
2023-11-26T01:10:05.162Z,200.67
2023-11-26T01:10:37.694Z,202.00
2023-11-26T01:11:13.844Z,202.67
2023-11-26T01:11:46.443Z,205.00
2023-11-26T01:12:18.999Z,207.67
2023-11-26T01:12:51.501Z,209.67
2023-11-26T01:13:24.008Z,211.00
2023-11-26T01:13:56.531Z,211.67
2023-11-26T01:14:29.167Z,213.33
2023-11-26T01:15:02.342Z,214.33
2023-11-26T01:15:35.084Z,215.00
2023-11-26T01:16:08.802Z,216.00
2023-11-26T01:16:41.327Z,216.00
2023-11-26T01:17:13.961Z,217.00
2023-11-26T01:17:47.312Z,216.33
2023-11-26T01:18:19.980Z,212.33
2023-11-26T01:18:52.542Z,200.33
2023-11-26T01:19:25.113Z,190.00
2023-11-26T01:19:57.818Z,187.00
2023-11-26T01:20:30.544Z,185.00
2023-11-26T01:21:03.743Z,185.33
2023-11-26T01:21:36.272Z,186.33
2023-11-26T01:22:08.816Z,187.00
2023-11-26T01:22:41.575Z,187.33
2023-11-26T01:23:14.207Z,189.33
2023-11-26T01:23:46.985Z,191.33
2023-11-26T01:24:19.500Z,192.33
2023-11-26T01:24:53.295Z,193.33
2023-11-26T01:25:25.825Z,194.67
2023-11-26T01:25:58.373Z,196.00
2023-11-26T01:26:30.908Z,197.00
2023-11-26T01:27:05.446Z,198.00
2023-11-26T01:27:37.986Z,199.00
2023-11-26T01:28:10.540Z,199.00
2023-11-26T01:28:43.219Z,200.00
2023-11-26T01:29:15.770Z,201.33
2023-11-26T01:29:48.745Z,204.00
2023-11-26T01:30:22.338Z,209.00
2023-11-26T01:30:54.873Z,215.00
2023-11-26T01:31:27.381Z,220.33
2023-11-26T01:31:59.914Z,223.33
2023-11-26T01:32:34.122Z,224.67
2023-11-26T01:33:07.645Z,225.00
2023-11-26T01:33:40.735Z,224.00
2023-11-26T01:34:13.289Z,222.33
2023-11-26T01:34:45.798Z,221.33
2023-11-26T01:35:18.366Z,220.33
2023-11-26T01:35:50.937Z,219.33
2023-11-26T01:36:23.456Z,217.00
2023-11-26T01:36:55.969Z,214.67
2023-11-26T01:37:28.488Z,213.67
2023-11-26T01:38:01.301Z,212.33
2023-11-26T01:38:34.021Z,210.00
2023-11-26T01:39:07.558Z,206.67
2023-11-26T01:39:40.884Z,200.67
2023-11-26T01:40:13.478Z,193.00
2023-11-26T01:40:46.046Z,189.00
2023-11-26T01:41:18.609Z,188.67
2023-11-26T01:41:51.176Z,190.00
2023-11-26T01:42:23.712Z,191.33
2023-11-26T01:42:56.549Z,192.33
2023-11-26T01:43:29.074Z,193.33
2023-11-26T01:44:01.705Z,194.00
2023-11-26T01:44:34.406Z,195.00
2023-11-26T01:45:08.649Z,196.00
2023-11-26T01:45:41.188Z,197.00
2023-11-26T01:46:14.780Z,197.00
2023-11-26T01:46:47.430Z,197.67
2023-11-26T01:47:20.550Z,198.00
2023-11-26T01:47:53.651Z,198.00
2023-11-26T01:48:26.230Z,197.67
2023-11-26T01:48:59.888Z,198.00
2023-11-26T01:49:36.438Z,198.00
2023-11-26T01:50:10.560Z,198.67
2023-11-26T01:50:44.337Z,199.00
2023-11-26T01:51:19.402Z,199.00
2023-11-26T01:51:51.911Z,199.00
2023-11-26T01:52:24.395Z,202.33
2023-11-26T01:52:57.343Z,222.33
2023-11-26T01:53:31.422Z,235.00
2023-11-26T01:54:05.177Z,238.33
2023-11-26T01:54:41.674Z,239.00
2023-11-26T01:55:14.199Z,240.33
2023-11-26T01:55:46.681Z,241.00
2023-11-26T01:56:20.424Z,240.33
2023-11-26T01:56:55.007Z,243.67
2023-11-26T01:57:27.963Z,244.00
2023-11-26T01:58:00.545Z,242.00
2023-11-26T01:58:33.142Z,241.67
2023-11-26T01:59:05.911Z,242.00
2023-11-26T01:59:39.966Z,243.67
2023-11-26T02:00:17.055Z,244.00
2023-11-26T02:00:52.019Z,245.00
2023-11-26T02:01:25.029Z,244.67
2023-11-26T02:01:58.038Z,242.33
2023-11-26T02:02:30.701Z,241.00
2023-11-26T02:03:06.148Z,240.00
2023-11-26T02:03:38.917Z,239.00
2023-11-26T02:04:11.477Z,238.33
2023-11-26T02:04:44.774Z,237.00
2023-11-26T02:05:18.558Z,233.67
2023-11-26T02:05:51.239Z,224.00
2023-11-26T02:06:24.343Z,211.00
2023-11-26T02:06:57.773Z,199.33
2023-11-26T02:07:30.288Z,194.67
2023-11-26T02:08:02.883Z,194.00
2023-11-26T02:08:35.460Z,196.33
2023-11-26T02:09:09.796Z,200.33
2023-11-26T02:09:42.391Z,202.00
2023-11-26T02:10:15.267Z,200.00
2023-11-26T02:10:47.910Z,199.00
2023-11-26T02:11:20.705Z,198.00
2023-11-26T02:11:53.294Z,198.00
2023-11-26T02:12:25.799Z,197.33
2023-11-26T02:13:08.384Z,198.00
2023-11-26T02:13:50.818Z,199.33
2023-11-26T02:14:24.512Z,200.67
2023-11-26T02:14:57.169Z,201.33
2023-11-26T02:15:30.310Z,202.33
2023-11-26T02:16:02.813Z,204.67
2023-11-26T02:16:35.336Z,208.00
2023-11-26T02:17:07.957Z,210.33
2023-11-26T02:17:40.639Z,211.00
2023-11-26T02:18:13.267Z,211.00
2023-11-26T02:18:45.812Z,210.00
2023-11-26T02:19:33.966Z,208.67
2023-11-26T02:20:14.210Z,207.67
2023-11-26T02:20:47.372Z,207.00
2023-11-26T02:21:19.865Z,207.00
2023-11-26T02:21:53.789Z,207.00
2023-11-26T02:22:26.312Z,207.67
2023-11-26T02:22:58.993Z,207.33
2023-11-26T02:23:33.926Z,206.67
2023-11-26T02:24:07.600Z,205.00
2023-11-26T02:24:45.076Z,201.67
2023-11-26T02:25:17.682Z,196.00
2023-11-26T02:25:50.278Z,191.67
2023-11-26T02:26:22.847Z,187.67
2023-11-26T02:26:55.683Z,182.33
2023-11-26T02:27:28.192Z,180.00
2023-11-26T02:28:01.095Z,178.33
2023-11-26T02:28:33.882Z,176.00
2023-11-26T02:29:09.471Z,174.33
2023-11-26T02:29:42.464Z,173.33
2023-11-26T02:30:15.028Z,175.67
2023-11-26T02:30:47.567Z,180.00
2023-11-26T02:31:20.069Z,183.67
2023-11-26T02:31:52.651Z,197.00
2023-11-26T02:32:25.227Z,210.67
2023-11-26T02:32:57.810Z,219.33
2023-11-26T02:33:53.432Z,223.67
2023-11-26T02:34:23.405Z,224.00
2023-11-26T02:34:55.956Z,222.00
2023-11-26T02:35:28.701Z,219.67
2023-11-26T02:36:01.307Z,219.00
2023-11-26T02:36:33.884Z,219.00
2023-11-26T02:37:06.442Z,219.33
2023-11-26T02:37:38.975Z,221.33
2023-11-26T02:38:11.519Z,223.33
2023-11-26T02:38:44.019Z,225.67
2023-11-26T02:39:16.530Z,226.33
2023-11-26T02:39:49.425Z,226.33
2023-11-26T02:40:23.242Z,226.00
2023-11-26T02:40:55.844Z,224.33
2023-11-26T02:41:28.393Z,223.67
2023-11-26T02:42:00.966Z,223.00
2023-11-26T02:42:33.879Z,222.00
2023-11-26T02:43:06.908Z,220.33
2023-11-26T02:43:40.799Z,217.00
2023-11-26T02:44:13.396Z,213.00
2023-11-26T02:44:45.927Z,209.67
2023-11-26T02:45:18.442Z,203.67
2023-11-26T02:45:58.179Z,198.00
2023-11-26T02:46:30.751Z,194.00
2023-11-26T02:47:04.829Z,191.33
2023-11-26T02:47:38.140Z,191.33
2023-11-26T02:48:10.980Z,193.33
2023-11-26T02:48:43.506Z,194.67
2023-11-26T02:49:16.062Z,196.00
2023-11-26T02:49:48.714Z,196.67
2023-11-26T02:50:21.343Z,199.00
2023-11-26T02:50:53.931Z,202.67
2023-11-26T02:51:26.529Z,206.00
2023-11-26T02:51:59.028Z,209.00
2023-11-26T02:52:31.895Z,211.67
2023-11-26T02:53:04.653Z,213.33
2023-11-26T02:53:37.231Z,215.33
2023-11-26T02:54:10.311Z,216.67
2023-11-26T02:54:42.847Z,217.67
2023-11-26T02:55:15.363Z,218.33
2023-11-26T02:55:48.205Z,218.33
2023-11-26T02:56:20.788Z,218.00
2023-11-26T02:56:53.409Z,218.00
2023-11-26T02:57:25.930Z,218.00
2023-11-26T02:57:58.496Z,218.33
2023-11-26T02:58:31.043Z,219.33
2023-11-26T02:59:03.825Z,221.33
2023-11-26T02:59:36.853Z,223.33
2023-11-26T03:00:17.173Z,224.00
2023-11-26T03:00:50.367Z,224.00
2023-11-26T03:01:29.599Z,223.00
2023-11-26T03:02:02.301Z,221.33
2023-11-26T03:02:36.165Z,219.00
2023-11-26T03:03:08.850Z,215.33
2023-11-26T03:03:41.493Z,212.00
2023-11-26T03:04:19.054Z,210.33
2023-11-26T03:04:54.006Z,208.33
2023-11-26T03:05:26.625Z,204.67
2023-11-26T03:05:59.624Z,194.33
2023-11-26T03:06:32.757Z,183.33
2023-11-26T03:07:05.562Z,182.33
2023-11-26T03:07:38.107Z,182.67
2023-11-26T03:08:22.292Z,180.33
2023-11-26T03:09:02.032Z,180.00
2023-11-26T03:09:34.785Z,180.00
2023-11-26T03:10:26.626Z,181.00
2023-11-26T03:11:17.936Z,182.33
2023-11-26T03:12:08.882Z,185.67
2023-11-26T03:12:59.708Z,189.67
2023-11-26T03:13:32.206Z,196.00
2023-11-26T03:14:04.753Z,198.00
2023-11-26T03:14:37.290Z,201.00
2023-11-26T03:15:10.244Z,205.00
2023-11-26T03:15:43.458Z,208.67
2023-11-26T03:16:16.484Z,211.33
2023-11-26T03:16:50.290Z,213.67
2023-11-26T03:17:24.153Z,215.00
2023-11-26T03:17:57.680Z,215.00
2023-11-26T03:18:30.346Z,213.67
2023-11-26T03:19:02.957Z,213.00
2023-11-26T03:19:35.539Z,212.33
2023-11-26T03:20:12.318Z,212.00
2023-11-26T03:20:46.876Z,212.00
2023-11-26T03:21:20.122Z,212.33
2023-11-26T03:21:55.001Z,214.00
2023-11-26T03:22:27.679Z,216.33
2023-11-26T03:23:00.354Z,217.67
2023-11-26T03:23:34.188Z,217.67
2023-11-26T03:24:07.062Z,216.33
2023-11-26T03:24:39.624Z,215.00
2023-11-26T03:25:12.186Z,211.00
2023-11-26T03:25:44.690Z,205.67
2023-11-26T03:26:17.397Z,202.33
2023-11-26T03:26:49.934Z,201.33
2023-11-26T03:27:22.447Z,201.00
2023-11-26T03:27:55.708Z,201.00
2023-11-26T03:28:28.378Z,201.00
2023-11-26T03:29:01.030Z,201.00
2023-11-26T03:29:33.682Z,200.00
2023-11-26T03:30:09.155Z,197.33
2023-11-26T03:30:41.656Z,195.33
2023-11-26T03:31:14.211Z,189.67
2023-11-26T03:31:48.606Z,181.00
2023-11-26T03:32:21.223Z,180.00
2023-11-26T03:32:58.910Z,180.00
2023-11-26T03:33:31.585Z,179.67
2023-11-26T03:34:09.780Z,175.00
2023-11-26T03:34:42.413Z,171.33
2023-11-26T03:35:15.049Z,169.33
2023-11-26T03:35:47.597Z,172.33
2023-11-26T03:36:20.100Z,174.67
2023-11-26T03:36:52.598Z,176.00
2023-11-26T03:37:25.161Z,178.33
2023-11-26T03:37:58.263Z,186.67
2023-11-26T03:38:31.918Z,197.00
2023-11-26T03:39:05.126Z,201.33
2023-11-26T03:39:41.874Z,207.00
2023-11-26T03:40:14.485Z,212.00
2023-11-26T03:40:47.108Z,213.67
2023-11-26T03:41:20.057Z,214.00
2023-11-26T03:41:52.730Z,213.00
2023-11-26T03:42:29.170Z,213.33
2023-11-26T03:43:02.280Z,214.67
2023-11-26T03:43:34.866Z,215.67
2023-11-26T03:44:07.441Z,216.67
2023-11-26T03:44:39.975Z,217.00
2023-11-26T03:45:12.897Z,219.00
2023-11-26T03:45:45.484Z,221.67
2023-11-26T03:46:18.446Z,223.00
2023-11-26T03:46:51.053Z,224.00
2023-11-26T03:47:24.801Z,223.00
2023-11-26T03:47:57.582Z,221.00
2023-11-26T03:48:30.145Z,220.00
2023-11-26T03:49:02.892Z,219.00
2023-11-26T03:49:35.869Z,218.33
2023-11-26T03:50:14.528Z,218.00
2023-11-26T03:50:47.241Z,217.00
2023-11-26T03:51:22.181Z,217.00
2023-11-26T03:51:54.760Z,216.00
2023-11-26T03:52:27.277Z,216.00
2023-11-26T03:52:59.866Z,216.67
2023-11-26T03:53:32.419Z,217.33
2023-11-26T03:54:05.048Z,218.67
2023-11-26T03:54:37.603Z,219.00
2023-11-26T03:55:10.522Z,219.67
2023-11-26T03:55:43.235Z,220.00
2023-11-26T03:56:16.249Z,220.67
2023-11-26T03:56:49.007Z,221.00
2023-11-26T03:57:21.727Z,222.00
2023-11-26T03:57:54.347Z,222.00
2023-11-26T03:58:26.884Z,223.00
2023-11-26T03:58:59.437Z,224.00
2023-11-26T03:59:32.061Z,224.67
2023-11-26T04:00:09.794Z,225.67
2023-11-26T04:00:42.541Z,226.67
2023-11-26T04:01:15.075Z,228.67
2023-11-26T04:01:47.774Z,229.00
2023-11-26T04:02:20.564Z,229.00
2023-11-26T04:02:53.420Z,229.00
2023-11-26T04:03:26.306Z,229.00
2023-11-26T04:04:00.056Z,228.33
2023-11-26T04:04:32.670Z,228.00
2023-11-26T04:05:05.799Z,228.67
2023-11-26T04:05:38.389Z,229.33
2023-11-26T04:06:11.141Z,230.67
2023-11-26T04:06:43.662Z,232.00
2023-11-26T04:07:16.172Z,234.00
2023-11-26T04:07:48.857Z,235.67
2023-11-26T04:08:21.469Z,238.00
2023-11-26T04:08:55.245Z,239.00
2023-11-26T04:09:28.026Z,239.00
2023-11-26T04:10:00.848Z,238.33
2023-11-26T04:10:40.654Z,238.00
2023-11-26T04:11:14.977Z,237.00
2023-11-26T04:11:47.600Z,236.00
2023-11-26T04:12:20.154Z,235.00
2023-11-26T04:12:52.719Z,234.00
2023-11-26T04:13:28.551Z,234.00
2023-11-26T04:14:01.127Z,234.00
2023-11-26T04:14:33.731Z,234.00
2023-11-26T04:15:08.107Z,233.00
2023-11-26T04:15:45.506Z,233.00
2023-11-26T04:16:20.130Z,232.33
2023-11-26T04:16:52.831Z,231.33
2023-11-26T04:17:26.758Z,229.67
2023-11-26T04:17:59.439Z,228.33
2023-11-26T04:18:31.979Z,227.33
2023-11-26T04:19:04.609Z,225.67
2023-11-26T04:19:37.144Z,224.33
2023-11-26T04:20:10.129Z,222.33
2023-11-26T04:20:42.750Z,221.00
2023-11-26T04:21:15.275Z,220.00
2023-11-26T04:21:48.118Z,220.00
2023-11-26T04:22:21.842Z,220.00
2023-11-26T04:22:54.405Z,220.00
2023-11-26T04:23:26.974Z,220.00
2023-11-26T04:23:59.560Z,220.00
2023-11-26T04:24:32.147Z,220.00
2023-11-26T04:25:06.683Z,220.33
2023-11-26T04:25:39.618Z,222.00
2023-11-26T04:26:12.186Z,229.33
2023-11-26T04:26:46.602Z,243.00
2023-11-26T04:27:22.461Z,254.67
2023-11-26T04:27:55.315Z,259.33
2023-11-26T04:28:27.820Z,257.33
2023-11-26T04:29:00.364Z,252.00
2023-11-26T04:29:32.958Z,247.33
2023-11-26T04:30:05.934Z,246.00
2023-11-26T04:30:38.558Z,245.00
2023-11-26T04:31:11.177Z,244.00
2023-11-26T04:31:46.266Z,242.67
2023-11-26T04:32:18.860Z,237.33
2023-11-26T04:32:51.484Z,229.33
2023-11-26T04:33:25.040Z,228.00
2023-11-26T04:33:57.552Z,228.00
2023-11-26T04:34:30.383Z,224.67
2023-11-26T04:35:02.976Z,216.33
2023-11-26T04:35:35.626Z,212.00
2023-11-26T04:36:08.385Z,213.00
2023-11-26T04:36:40.941Z,217.67
2023-11-26T04:37:13.454Z,227.00
2023-11-26T04:37:46.021Z,231.00
2023-11-26T04:38:18.616Z,231.00
2023-11-26T04:38:51.249Z,231.00
2023-11-26T04:39:24.152Z,230.00
2023-11-26T04:39:56.659Z,230.00
2023-11-26T04:40:29.226Z,230.00
2023-11-26T04:41:01.787Z,230.00
2023-11-26T04:41:34.315Z,230.00
2023-11-26T04:42:06.926Z,236.33
2023-11-26T04:42:39.493Z,243.00
2023-11-26T04:43:12.261Z,244.67
2023-11-26T04:43:44.793Z,243.67
2023-11-26T04:44:18.019Z,242.33
2023-11-26T04:44:50.616Z,242.33
2023-11-26T04:45:23.525Z,244.67
2023-11-26T04:45:56.254Z,251.00
2023-11-26T04:46:28.879Z,253.67
2023-11-26T04:47:01.503Z,253.67
2023-11-26T04:47:36.780Z,256.67
2023-11-26T04:48:10.018Z,258.00
2023-11-26T04:48:43.532Z,256.00
2023-11-26T04:49:17.071Z,253.33
2023-11-26T04:49:49.630Z,252.00
2023-11-26T04:50:22.186Z,251.33
2023-11-26T04:50:54.718Z,250.67
2023-11-26T04:51:28.499Z,249.67
2023-11-26T04:52:01.098Z,248.33
2023-11-26T04:52:33.913Z,247.00
2023-11-26T04:53:06.475Z,244.67
2023-11-26T04:53:40.510Z,243.67
2023-11-26T04:54:13.513Z,241.67
2023-11-26T04:54:46.081Z,240.33
2023-11-26T04:55:20.808Z,239.00
2023-11-26T04:55:54.372Z,239.00
2023-11-26T04:56:26.991Z,239.00
2023-11-26T04:56:59.551Z,239.00
2023-11-26T04:57:32.128Z,238.67
2023-11-26T04:58:04.653Z,237.67
2023-11-26T04:58:38.174Z,236.33
2023-11-26T04:59:10.709Z,234.67
2023-11-26T04:59:43.320Z,233.33
2023-11-26T05:00:18.809Z,231.67
2023-11-26T05:00:52.537Z,229.67
2023-11-26T05:01:25.745Z,227.00
2023-11-26T05:01:58.429Z,225.00
2023-11-26T05:02:33.918Z,223.00
2023-11-26T05:03:07.319Z,223.00
2023-11-26T05:03:41.091Z,222.33
2023-11-26T05:04:14.872Z,221.00
2023-11-26T05:04:49.303Z,220.00
2023-11-26T05:05:22.812Z,218.67
2023-11-26T05:05:56.186Z,218.00
2023-11-26T05:06:28.722Z,218.00
2023-11-26T05:07:01.216Z,218.00
2023-11-26T05:07:33.756Z,216.00
2023-11-26T05:08:06.678Z,212.67
2023-11-26T05:08:39.802Z,208.67
2023-11-26T05:09:13.467Z,204.67
2023-11-26T05:09:46.004Z,201.67
2023-11-26T05:10:18.544Z,196.67
2023-11-26T05:10:51.911Z,192.67
2023-11-26T05:11:24.505Z,197.67
2023-11-26T05:11:57.041Z,204.00
2023-11-26T05:12:29.589Z,210.33
2023-11-26T05:13:02.101Z,210.33
2023-11-26T05:13:34.644Z,202.67
2023-11-26T05:14:07.253Z,191.67
2023-11-26T05:14:39.906Z,188.33
2023-11-26T05:15:12.447Z,189.33
2023-11-26T05:15:45.023Z,195.00
2023-11-26T05:16:17.968Z,198.00
2023-11-26T05:16:50.772Z,199.67
2023-11-26T05:17:23.352Z,195.67
2023-11-26T05:17:56.422Z,184.00
2023-11-26T05:18:29.026Z,181.33
2023-11-26T05:19:01.558Z,183.67
2023-11-26T05:19:34.108Z,187.67
2023-11-26T05:20:14.149Z,190.00
2023-11-26T05:20:46.847Z,191.33
2023-11-26T05:21:19.417Z,192.33
2023-11-26T05:21:52.064Z,193.33
2023-11-26T05:22:24.632Z,194.33
2023-11-26T05:22:58.153Z,197.00
2023-11-26T05:23:31.507Z,201.33
2023-11-26T05:24:05.691Z,207.00
2023-11-26T05:24:39.096Z,213.33
2023-11-26T05:25:11.651Z,215.67
2023-11-26T05:25:44.170Z,216.00
2023-11-26T05:26:16.820Z,216.00
2023-11-26T05:26:49.405Z,215.33
2023-11-26T05:27:23.088Z,215.00
2023-11-26T05:27:55.657Z,215.00
2023-11-26T05:28:28.178Z,214.00
2023-11-26T05:29:00.897Z,214.00
2023-11-26T05:29:33.486Z,213.33
2023-11-26T05:30:08.044Z,213.00
2023-11-26T05:30:40.693Z,213.00
2023-11-26T05:31:13.443Z,212.33
2023-11-26T05:31:46.232Z,212.00
2023-11-26T05:32:18.794Z,212.00
2023-11-26T05:32:51.374Z,212.00
2023-11-26T05:33:23.980Z,212.00
2023-11-26T05:33:56.494Z,212.00
2023-11-26T05:34:29.043Z,211.33
2023-11-26T05:35:13.565Z,211.00
2023-11-26T05:35:46.288Z,211.00
2023-11-26T05:36:19.713Z,211.00
2023-11-26T05:36:52.399Z,211.00
2023-11-26T05:37:25.046Z,211.00
2023-11-26T05:37:57.636Z,211.00
2023-11-26T05:38:30.299Z,211.00
2023-11-26T05:39:02.847Z,212.00
2023-11-26T05:39:35.890Z,213.00
2023-11-26T05:40:10.873Z,213.67
2023-11-26T05:40:43.413Z,215.33
2023-11-26T05:41:16.185Z,221.00
2023-11-26T05:41:48.846Z,228.00
2023-11-26T05:42:21.395Z,237.67
2023-11-26T05:42:53.937Z,244.33
2023-11-26T05:43:27.304Z,244.67
2023-11-26T05:44:00.023Z,239.67
2023-11-26T05:44:32.617Z,237.33
2023-11-26T05:45:06.162Z,238.00
2023-11-26T05:45:38.707Z,238.67
2023-11-26T05:46:11.265Z,238.00
2023-11-26T05:46:44.574Z,238.00
2023-11-26T05:47:17.302Z,238.00
2023-11-26T05:47:50.113Z,237.33
2023-11-26T05:48:22.825Z,236.00
2023-11-26T05:48:55.559Z,235.00
2023-11-26T05:49:28.129Z,234.00
2023-11-26T05:50:01.263Z,232.00
2023-11-26T05:50:33.881Z,229.00
2023-11-26T05:51:06.807Z,226.00
2023-11-26T05:51:39.388Z,223.67
2023-11-26T05:52:11.913Z,222.00
2023-11-26T05:52:44.472Z,221.00
2023-11-26T05:53:16.984Z,219.67
2023-11-26T05:53:49.589Z,218.67
2023-11-26T05:54:22.242Z,218.00
2023-11-26T05:54:54.800Z,217.00
2023-11-26T05:55:27.308Z,217.00
2023-11-26T05:56:00.326Z,216.00
2023-11-26T05:56:32.858Z,215.00
2023-11-26T05:57:05.961Z,214.33
2023-11-26T05:57:38.580Z,212.67
2023-11-26T05:58:11.197Z,211.67
2023-11-26T05:58:43.746Z,210.33
2023-11-26T05:59:16.310Z,209.67
2023-11-26T05:59:49.148Z,208.33
2023-11-26T06:00:21.891Z,207.00
2023-11-26T06:00:55.143Z,207.00
2023-11-26T06:01:27.971Z,207.00
2023-11-26T06:02:00.981Z,206.33
2023-11-26T06:02:34.279Z,205.67
2023-11-26T06:03:06.931Z,205.00
2023-11-26T06:03:39.645Z,205.00
2023-11-26T06:04:12.604Z,204.33
2023-11-26T06:04:45.117Z,204.00
2023-11-26T06:05:18.153Z,205.67
2023-11-26T06:05:50.692Z,209.33
2023-11-26T06:06:24.069Z,211.00
2023-11-26T06:06:56.717Z,211.00
2023-11-26T06:07:29.304Z,211.00
2023-11-26T06:08:03.665Z,210.00
2023-11-26T06:08:36.344Z,208.00
2023-11-26T06:09:08.914Z,205.00
2023-11-26T06:09:42.184Z,202.00
2023-11-26T06:10:14.727Z,201.00
2023-11-26T06:10:47.950Z,201.00
2023-11-26T06:11:20.503Z,202.00
2023-11-26T06:11:53.011Z,202.67
2023-11-26T06:12:25.608Z,203.00
2023-11-26T06:12:58.404Z,203.00
2023-11-26T06:13:30.967Z,203.00
2023-11-26T06:14:03.647Z,203.00
2023-11-26T06:14:36.701Z,202.67
2023-11-26T06:15:09.864Z,201.67
2023-11-26T06:15:42.488Z,200.67
2023-11-26T06:16:15.137Z,199.67
2023-11-26T06:16:47.725Z,199.00
2023-11-26T06:17:20.260Z,198.67
2023-11-26T06:17:52.903Z,198.00
2023-11-26T06:18:25.496Z,198.00
2023-11-26T06:18:58.034Z,197.67
2023-11-26T06:19:30.551Z,197.00
2023-11-26T06:20:03.909Z,197.00
2023-11-26T06:20:36.448Z,197.00
2023-11-26T06:21:09.074Z,197.00
2023-11-26T06:21:41.746Z,196.67
2023-11-26T06:22:14.389Z,195.67
2023-11-26T06:22:46.920Z,195.00
2023-11-26T06:23:19.424Z,197.00
2023-11-26T06:23:54.608Z,220.33
2023-11-26T06:24:28.521Z,237.33
2023-11-26T06:25:01.049Z,229.33
2023-11-26T06:25:33.566Z,222.67
2023-11-26T06:26:06.131Z,221.33
2023-11-26T06:26:39.453Z,222.00
2023-11-26T06:27:12.035Z,227.00
2023-11-26T06:27:44.636Z,235.00
2023-11-26T06:28:18.456Z,240.67
2023-11-26T06:28:51.021Z,262.33
2023-11-26T06:29:23.608Z,272.33
2023-11-26T06:29:56.143Z,277.00
2023-11-26T06:30:28.934Z,278.00
2023-11-26T06:31:01.560Z,279.00
2023-11-26T06:31:34.208Z,287.67
2023-11-26T06:32:07.075Z,287.00
2023-11-26T06:32:39.637Z,271.33
2023-11-26T06:33:12.177Z,257.67
2023-11-26T06:33:44.778Z,252.67
2023-11-26T06:34:19.558Z,237.67
2023-11-26T06:34:52.098Z,214.67
2023-11-26T06:35:24.599Z,203.00
2023-11-26T06:35:57.102Z,194.00
2023-11-26T06:36:29.941Z,185.33
2023-11-26T06:37:02.789Z,180.67
2023-11-26T06:37:35.573Z,177.67
2023-11-26T06:38:08.158Z,181.67
2023-11-26T06:38:40.677Z,184.00
2023-11-26T06:39:16.089Z,184.67
2023-11-26T06:39:50.367Z,182.00
2023-11-26T06:40:23.060Z,181.33
2023-11-26T06:40:55.553Z,186.33
2023-11-26T06:41:35.516Z,191.67
2023-11-26T06:42:08.048Z,194.33
2023-11-26T06:42:42.688Z,195.00
2023-11-26T06:43:15.359Z,193.33
2023-11-26T06:43:47.894Z,187.00
2023-11-26T06:44:21.876Z,179.00
2023-11-26T06:44:54.489Z,169.67
2023-11-26T06:45:27.342Z,155.67
2023-11-26T06:46:00.117Z,145.00
2023-11-26T06:46:32.664Z,139.00
2023-11-26T06:47:05.357Z,132.00
2023-11-26T06:47:38.292Z,122.33
2023-11-26T06:48:11.393Z,119.00
2023-11-26T06:48:45.072Z,123.67
2023-11-26T06:49:17.600Z,140.33
2023-11-26T06:49:50.114Z,155.67
2023-11-26T06:50:23.260Z,158.67
2023-11-26T06:50:55.809Z,155.33
2023-11-26T06:51:28.349Z,145.33
2023-11-26T06:52:00.897Z,136.67
2023-11-26T06:52:35.097Z,132.33
2023-11-26T06:53:08.318Z,130.33
2023-11-26T06:53:40.938Z,129.67
2023-11-26T06:54:13.482Z,130.33
2023-11-26T06:54:45.990Z,136.00
2023-11-26T06:55:18.487Z,142.67